Time;durP1;ratioP1;P1;durP2;ratioP2;P2;SDS_P1;SDS_P2;PMS_P1;PMS_P2;Temp;Humidity;BMP_temperature;BMP_pressure;BME280_temperature;BME280_humidity;BME280_pressure;Samples;Min_cycle;Max_cycle;Signal;HPM_P1;HPM_P2
2023/04/10 00:02:19;;;;;;;6.32;4.82;;;;;;;;;;5015502;28;20022;-64
2023/04/10 00:04:45;;;;;;;6.30;4.57;;;;;;;;;;5014629;28;20076;-64
2023/04/10 00:07:11;;;;;;;4.60;3.88;;;;;;;;;;5015087;28;20102;-64
2023/04/10 00:09:37;;;;;;;5.00;4.22;;;;;;;;;;5014778;28;20049;-65
2023/04/10 00:12:03;;;;;;;5.18;4.43;;;;;;;;;;5014797;28;20482;-65
2023/04/10 00:14:30;;;;;;;5.75;4.55;;;;;;;;;;5014058;28;20536;-64
2023/04/10 00:16:56;;;;;;;6.07;4.03;;;;;;;;;;5014890;28;20026;-65
2023/04/10 00:19:22;;;;;;;5.07;4.22;;;;;;;;;;5015046;28;20038;-65
2023/04/10 00:21:48;;;;;;;5.60;4.63;;;;;;;;;;5014554;28;20033;-65
2023/04/10 00:24:14;;;;;;;4.97;3.95;;;;;;;;;;5014682;28;20033;-65
2023/04/10 00:26:40;;;;;;;5.03;4.20;;;;;;;;;;5014547;28;20064;-65
2023/04/10 00:29:07;;;;;;;4.93;4.40;;;;;;;;;;5014087;28;20022;-65
2023/04/10 00:31:33;;;;;;;5.28;4.18;;;;;;;;;;5014359;28;20045;-65
2023/04/10 00:33:59;;;;;;;5.70;4.43;;;;;;;;;;5014636;28;20022;-65
2023/04/10 00:36:25;;;;;;;5.53;4.55;;;;;;;;;;5014444;28;20096;-64
2023/04/10 00:38:51;;;;;;;5.00;3.85;;;;;;;;;;5014621;28;20552;-65
2023/04/10 00:41:17;;;;;;;5.65;4.80;;;;;;;;;;5014541;28;20029;-65
2023/04/10 00:43:44;;;;;;;4.38;3.97;;;;;;;;;;5013540;28;20033;-65
2023/04/10 00:46:10;;;;;;;4.90;4.03;;;;;;;;;;5014407;28;20053;-65
2023/04/10 00:48:36;;;;;;;4.72;4.18;;;;;;;;;;5014077;28;20597;-65
2023/04/10 00:51:03;;;;;;;5.00;4.50;;;;;;;;;;5014293;28;20080;-65
2023/04/10 00:53:30;;;;;;;6.18;4.47;;;;;;;;;;5013541;28;20064;-65
2023/04/10 00:55:56;;;;;;;5.50;4.30;;;;;;;;;;5014229;28;20025;-65
2023/04/10 00:58:22;;;;;;;5.15;4.25;;;;;;;;;;5014263;28;20112;-65
2023/04/10 01:00:48;;;;;;;5.45;4.07;;;;;;;;;;5013894;28;20109;-65
2023/04/10 01:03:16;;;;;;;5.28;4.30;;;;;;;;;;5014111;28;20397;-65
2023/04/10 01:05:56;;;;;;;5.47;4.68;;;;;;;;;;5013710;28;20437;-65
2023/04/10 01:08:25;;;;;;;5.85;4.22;;;;;;;;;;5013671;28;20038;-65
2023/04/10 01:10:55;;;;;;;4.88;4.00;;;;;;;;;;5013896;28;20072;-65
2023/04/10 01:13:21;;;;;;;5.53;3.70;;;;;;;;;;5013001;28;20037;-65
2023/04/10 01:15:55;;;;;;;5.03;4.03;;;;;;;;;;5013550;28;20022;-65
2023/04/10 01:18:27;;;;;;;4.43;4.03;;;;;;;;;;5013959;28;20122;-63
2023/04/10 01:20:54;;;;;;;6.22;3.95;;;;;;;;;;5014014;28;20098;-64
2023/04/10 01:23:42;;;;;;;4.70;4.07;;;;;;;;;;5013424;28;20517;-64
2023/04/10 01:26:10;;;;;;;4.72;4.00;;;;;;;;;;5013546;28;20105;-64
2023/04/10 01:28:56;;;;;;;4.45;3.90;;;;;;;;;;5013327;28;20038;-64
2023/04/10 01:31:35;;;;;;;5.97;4.28;;;;;;;;;;5013506;28;20092;-64
2023/04/10 01:34:05;;;;;;;6.20;4.20;;;;;;;;;;5013505;28;20033;-64
2023/04/10 01:36:46;;;;;;;5.25;4.22;;;;;;;;;;5012866;28;20033;-64
2023/04/10 01:39:13;;;;;;;4.60;3.63;;;;;;;;;;5013303;28;20038;-63
2023/04/10 01:41:41;;;;;;;4.28;3.88;;;;;;;;;;5012448;28;20092;-63
2023/04/10 01:44:08;;;;;;;5.15;4.40;;;;;;;;;;5013300;28;20041;-64
2023/04/10 01:46:34;;;;;;;4.25;3.85;;;;;;;;;;5013011;28;20030;-64
2023/04/10 01:49:02;;;;;;;4.80;3.95;;;;;;;;;;5013295;28;20117;-64
2023/04/10 01:51:29;;;;;;;5.00;3.67;;;;;;;;;;5012963;28;20402;-64
2023/04/10 01:53:55;;;;;;;5.15;3.83;;;;;;;;;;5012977;28;20079;-64
2023/04/10 01:56:21;;;;;;;4.28;3.88;;;;;;;;;;5012753;28;20041;-63
2023/04/10 01:58:47;;;;;;;5.60;4.18;;;;;;;;;;5012679;28;20030;-63
2023/04/10 02:01:20;;;;;;;4.18;3.47;;;;;;;;;;5012953;28;20025;-64
2023/04/10 02:03:47;;;;;;;4.22;3.40;;;;;;;;;;5012326;28;20030;-64
2023/04/10 02:06:35;;;;;;;4.35;3.58;;;;;;;;;;5012932;28;20129;-64
2023/04/10 02:09:12;;;;;;;4.68;3.78;;;;;;;;;;5012552;28;20026;-64
2023/04/10 02:11:41;;;;;;;5.45;4.20;;;;;;;;;;5012585;28;20504;-64
2023/04/10 02:14:10;;;;;;;4.80;3.55;;;;;;;;;;5012573;28;20032;-64
2023/04/10 02:16:37;;;;;;;4.22;3.35;;;;;;;;;;5012471;28;20026;-63
2023/04/10 02:19:05;;;;;;;3.83;3.38;;;;;;;;;;5012554;28;20069;-63
2023/04/10 02:21:32;;;;;;;4.50;3.33;;;;;;;;;;5012011;28;20034;-64
2023/04/10 02:23:59;;;;;;;5.05;3.80;;;;;;;;;;5012042;28;20486;-64
2023/04/10 02:26:25;;;;;;;4.10;3.70;;;;;;;;;;5012342;28;20026;-63
2023/04/10 02:28:51;;;;;;;6.55;3.95;;;;;;;;;;5012536;28;20030;-63
2023/04/10 02:31:17;;;;;;;4.07;3.50;;;;;;;;;;5012398;28;20022;-64
2023/04/10 02:33:43;;;;;;;4.50;3.67;;;;;;;;;;5012119;28;20033;-64
2023/04/10 02:36:09;;;;;;;4.28;3.45;;;;;;;;;;5011941;28;20030;-64
2023/04/10 02:38:35;;;;;;;3.63;3.25;;;;;;;;;;5011989;28;20040;-63
2023/04/10 02:41:01;;;;;;;4.30;3.88;;;;;;;;;;5012284;28;20022;-63
2023/04/10 02:43:28;;;;;;;5.13;3.13;;;;;;;;;;5011441;28;20030;-63
2023/04/10 02:45:54;;;;;;;3.80;3.40;;;;;;;;;;5012120;28;20030;-61
2023/04/10 02:48:20;;;;;;;4.28;3.50;;;;;;;;;;5012302;28;20021;-64
2023/04/10 02:50:46;;;;;;;3.80;3.10;;;;;;;;;;5011776;28;20029;-64
2023/04/10 02:53:15;;;;;;;4.05;3.20;;;;;;;;;;5012058;28;20501;-64
2023/04/10 02:55:41;;;;;;;4.35;3.65;;;;;;;;;;5011710;28;20026;-63
2023/04/10 02:58:07;;;;;;;4.10;3.40;;;;;;;;;;5011714;28;20113;-64
2023/04/10 03:00:33;;;;;;;4.40;3.65;;;;;;;;;;5011665;28;20030;-64
2023/04/10 03:02:59;;;;;;;4.35;3.53;;;;;;;;;;5011703;28;20026;-63
2023/04/10 03:05:25;;;;;;;4.10;3.28;;;;;;;;;;5011538;28;20500;-63
2023/04/10 03:07:53;;;;;;;4.45;3.65;;;;;;;;;;5011946;28;20038;-63
2023/04/10 03:10:19;;;;;;;3.65;2.92;;;;;;;;;;5011814;28;20036;-64
2023/04/10 03:12:45;;;;;;;5.20;3.42;;;;;;;;;;5011157;28;20105;-63
2023/04/10 03:15:11;;;;;;;4.10;3.22;;;;;;;;;;5011709;28;20457;-64
2023/04/10 03:17:37;;;;;;;3.60;3.20;;;;;;;;;;5011265;28;20022;-63
2023/04/10 03:20:03;;;;;;;4.03;3.42;;;;;;;;;;5011578;28;20406;-63
2023/04/10 03:22:31;;;;;;;3.95;3.08;;;;;;;;;;5010976;28;20026;-63
2023/04/10 03:24:57;;;;;;;3.35;2.97;;;;;;;;;;5011618;28;20045;-63
2023/04/10 03:27:24;;;;;;;4.68;3.55;;;;;;;;;;5011856;28;20022;-63
2023/04/10 03:29:50;;;;;;;4.38;3.30;;;;;;;;;;5011729;28;20026;-63
2023/04/10 03:32:16;;;;;;;4.18;3.20;;;;;;;;;;5011345;28;20131;-63
2023/04/10 03:34:42;;;;;;;4.20;3.10;;;;;;;;;;5010080;28;20068;-63
2023/04/10 03:37:08;;;;;;;3.53;3.22;;;;;;;;;;5011361;28;20390;-63
2023/04/10 03:39:36;;;;;;;3.50;3.20;;;;;;;;;;5010957;28;20034;-63
2023/04/10 03:42:02;;;;;;;3.90;3.10;;;;;;;;;;5011298;28;20034;-64
2023/04/10 03:44:28;;;;;;;3.97;2.80;;;;;;;;;;5011011;28;20509;-63
2023/04/10 03:46:54;;;;;;;3.97;3.03;;;;;;;;;;5011444;28;20026;-63
2023/04/10 03:49:20;;;;;;;4.45;2.97;;;;;;;;;;5011350;28;20029;-64
2023/04/10 03:51:46;;;;;;;4.30;3.05;;;;;;;;;;5011052;28;20029;-64
2023/04/10 03:54:13;;;;;;;4.20;3.58;;;;;;;;;;5011177;28;20042;-64
2023/04/10 03:56:39;;;;;;;4.03;3.08;;;;;;;;;;5011007;28;20088;-63
2023/04/10 03:59:05;;;;;;;4.20;3.22;;;;;;;;;;5011053;28;20046;-64
2023/04/10 04:01:32;;;;;;;3.83;3.03;;;;;;;;;;5010754;28;20145;-63
2023/04/10 04:03:58;;;;;;;3.22;2.75;;;;;;;;;;5010744;28;20501;-63
2023/04/10 04:06:24;;;;;;;3.30;2.88;;;;;;;;;;5011100;28;20101;-61
2023/04/10 04:08:50;;;;;;;3.72;2.88;;;;;;;;;;5011261;28;20109;-63
2023/04/10 04:11:16;;;;;;;3.05;2.75;;;;;;;;;;5010956;28;20104;-64
2023/04/10 04:13:42;;;;;;;3.00;2.15;;;;;;;;;;5010788;28;20092;-63
2023/04/10 04:16:08;;;;;;;3.30;2.70;;;;;;;;;;5010936;28;20022;-63
2023/04/10 04:18:34;;;;;;;4.78;2.90;;;;;;;;;;4993064;28;20478;-63
2023/04/10 04:21:00;;;;;;;2.95;2.55;;;;;;;;;;5010367;28;20488;-63
2023/04/10 04:23:26;;;;;;;3.80;2.80;;;;;;;;;;4993101;28;20022;-63
2023/04/10 04:25:54;;;;;;;3.95;2.95;;;;;;;;;;5011193;28;20108;-63
2023/04/10 04:28:20;;;;;;;4.57;2.58;;;;;;;;;;5011002;28;20026;-64
2023/04/10 04:30:46;;;;;;;3.85;3.00;;;;;;;;;;5010499;28;20104;-63
2023/04/10 04:33:12;;;;;;;3.65;3.17;;;;;;;;;;5010535;28;20025;-63
2023/04/10 04:35:38;;;;;;;3.38;2.63;;;;;;;;;;5010651;28;20029;-63
2023/04/10 04:38:04;;;;;;;2.85;2.53;;;;;;;;;;5010640;28;20030;-62
2023/04/10 04:40:30;;;;;;;3.78;3.15;;;;;;;;;;5010528;28;20115;-64
2023/04/10 04:42:56;;;;;;;3.60;2.78;;;;;;;;;;5010533;28;20038;-63
2023/04/10 04:45:23;;;;;;;3.60;2.75;;;;;;;;;;5010979;28;20600;-63
2023/04/10 04:47:49;;;;;;;3.13;2.58;;;;;;;;;;5014192;28;20024;-63
2023/04/10 04:50:15;;;;;;;3.38;2.58;;;;;;;;;;5014244;28;20076;-63
2023/04/10 04:52:43;;;;;;;3.30;2.92;;;;;;;;;;5014006;28;20022;-63
2023/04/10 04:55:09;;;;;;;3.75;3.30;;;;;;;;;;5014189;28;20041;-63
2023/04/10 04:57:35;;;;;;;3.15;2.75;;;;;;;;;;5013882;28;20486;-63
2023/04/10 05:00:01;;;;;;;3.85;3.45;;;;;;;;;;5014015;28;20065;-64
2023/04/10 05:02:27;;;;;;;3.78;2.97;;;;;;;;;;5012532;28;20049;-62
2023/04/10 05:04:53;;;;;;;3.85;2.83;;;;;;;;;;5011008;28;20037;-63
2023/04/10 05:07:19;;;;;;;3.00;2.60;;;;;;;;;;5014171;28;20022;-63
2023/04/10 05:09:45;;;;;;;3.25;2.63;;;;;;;;;;5013805;28;20106;-63
2023/04/10 05:12:11;;;;;;;3.53;3.22;;;;;;;;;;5013808;28;20018;-63
2023/04/10 05:14:37;;;;;;;3.20;2.70;;;;;;;;;;5013605;28;20033;-63
2023/04/10 05:17:03;;;;;;;3.35;2.75;;;;;;;;;;5013745;28;20030;-63
2023/04/10 05:19:29;;;;;;;3.20;2.70;;;;;;;;;;5013109;28;20383;-63
2023/04/10 05:21:55;;;;;;;3.03;2.60;;;;;;;;;;5014106;28;20442;-63
2023/04/10 05:24:21;;;;;;;3.15;2.63;;;;;;;;;;5014180;28;20022;-63
2023/04/10 05:26:47;;;;;;;3.22;2.80;;;;;;;;;;5013617;28;20072;-63
2023/04/10 05:29:13;;;;;;;3.22;2.88;;;;;;;;;;5013605;28;20109;-63
2023/04/10 05:31:39;;;;;;;3.83;3.33;;;;;;;;;;5013081;28;20055;-63
2023/04/10 05:34:05;;;;;;;3.63;3.13;;;;;;;;;;5013818;28;20538;-63
2023/04/10 05:36:31;;;;;;;3.35;2.75;;;;;;;;;;5013432;28;20030;-63
2023/04/10 05:38:57;;;;;;;4.63;2.58;;;;;;;;;;5013421;28;20105;-63
2023/04/10 05:41:23;;;;;;;4.20;2.75;;;;;;;;;;5013259;28;20030;-64
2023/04/10 05:43:49;;;;;;;3.70;2.67;;;;;;;;;;5013332;28;20092;-63
2023/04/10 05:46:15;;;;;;;2.97;2.53;;;;;;;;;;5013418;28;20056;-63
2023/04/10 05:48:41;;;;;;;4.65;2.97;;;;;;;;;;5012750;28;20034;-63
2023/04/10 05:51:07;;;;;;;2.85;2.58;;;;;;;;;;5013181;28;20561;-63
2023/04/10 05:53:34;;;;;;;3.95;2.72;;;;;;;;;;5012988;28;20102;-63
2023/04/10 05:56:00;;;;;;;3.42;2.72;;;;;;;;;;5013163;28;20096;-63
2023/04/10 05:58:27;;;;;;;3.75;2.95;;;;;;;;;;5012186;28;20100;-63
2023/04/10 06:00:53;;;;;;;3.00;2.50;;;;;;;;;;5013458;28;20105;-63
2023/04/10 06:03:20;;;;;;;3.00;2.67;;;;;;;;;;5013214;28;20428;-63
2023/04/10 06:05:46;;;;;;;3.08;2.63;;;;;;;;;;5012957;28;20030;-62
2023/04/10 06:08:12;;;;;;;2.97;2.25;;;;;;;;;;5013462;28;20097;-64
2023/04/10 06:10:38;;;;;;;4.50;3.03;;;;;;;;;;5012567;28;20160;-64
2023/04/10 06:13:04;;;;;;;3.28;2.83;;;;;;;;;;5012944;28;20471;-63
2023/04/10 06:15:30;;;;;;;3.17;2.88;;;;;;;;;;4995010;28;20053;-63
2023/04/10 06:17:56;;;;;;;3.22;2.72;;;;;;;;;;5012471;28;20069;-63
2023/04/10 06:20:22;;;;;;;3.63;2.55;;;;;;;;;;5013084;28;20394;-63
2023/04/10 06:22:48;;;;;;;3.15;2.60;;;;;;;;;;5012194;28;20022;-62
2023/04/10 06:25:14;;;;;;;3.63;3.00;;;;;;;;;;5011928;28;20034;-63
2023/04/10 06:27:40;;;;;;;3.47;2.75;;;;;;;;;;5012625;28;20036;-63
2023/04/10 06:30:06;;;;;;;3.38;2.70;;;;;;;;;;5012602;28;20470;-63
2023/04/10 06:32:32;;;;;;;3.60;2.60;;;;;;;;;;5012249;28;20036;-63
2023/04/10 06:34:58;;;;;;;3.63;2.55;;;;;;;;;;5012463;28;20474;-63
2023/04/10 06:37:30;;;;;;;2.97;2.67;;;;;;;;;;5012156;28;20030;-62
2023/04/10 06:40:09;;;;;;;3.58;2.88;;;;;;;;;;5012232;28;20065;-62
2023/04/10 06:42:35;;;;;;;3.28;2.67;;;;;;;;;;5011385;28;20437;-63
2023/04/10 06:45:02;;;;;;;4.07;2.92;;;;;;;;;;5012177;28;20120;-61
2023/04/10 06:47:28;;;;;;;3.45;3.15;;;;;;;;;;5012176;28;20429;-61
2023/04/10 06:49:54;;;;;;;2.83;2.53;;;;;;;;;;5012474;28;20022;-62
2023/04/10 06:52:20;;;;;;;2.85;2.55;;;;;;;;;;5012431;28;20030;-62
2023/04/10 06:54:46;;;;;;;4.85;3.17;;;;;;;;;;5012052;28;20090;-62
2023/04/10 06:57:12;;;;;;;3.55;2.92;;;;;;;;;;5012016;28;20038;-63
2023/04/10 06:59:39;;;;;;;6.28;2.90;;;;;;;;;;5011484;28;20112;-62
2023/04/10 07:02:05;;;;;;;6.88;2.75;;;;;;;;;;5010073;28;20566;-63
2023/04/10 07:04:31;;;;;;;6.75;2.70;;;;;;;;;;5011292;28;20104;-63
2023/04/10 07:06:57;;;;;;;3.65;2.65;;;;;;;;;;5016826;28;20093;-63
2023/04/10 07:09:28;;;;;;;6.18;2.67;;;;;;;;;;5016134;28;20057;-62
2023/04/10 07:11:54;;;;;;;6.82;2.85;;;;;;;;;;5021967;28;20025;-63
2023/04/10 07:14:20;;;;;;;5.18;2.65;;;;;;;;;;5024632;28;20762;-63
2023/04/10 07:16:46;;;;;;;5.03;2.72;;;;;;;;;;5026710;28;20029;-61
2023/04/10 07:19:12;;;;;;;4.88;2.70;;;;;;;;;;5012485;28;20034;-62
2023/04/10 07:21:38;;;;;;;8.20;2.50;;;;;;;;;;5011466;28;20065;-62
2023/04/10 07:24:04;;;;;;;2.97;2.60;;;;;;;;;;5011867;28;20054;-62
2023/04/10 07:26:30;;;;;;;5.95;2.88;;;;;;;;;;5011329;28;20033;-63
2023/04/10 07:28:56;;;;;;;3.08;2.17;;;;;;;;;;5012691;28;20029;-62
2023/04/10 07:31:22;;;;;;;6.80;2.45;;;;;;;;;;5019839;28;20025;-61
2023/04/10 07:33:48;;;;;;;5.78;2.58;;;;;;;;;;5019311;28;20030;-60
2023/04/10 07:36:14;;;;;;;3.53;2.60;;;;;;;;;;5019754;28;20029;-60
2023/04/10 07:38:41;;;;;;;13.82;2.70;;;;;;;;;;5020307;28;20033;-60
2023/04/10 07:41:07;;;;;;;6.35;2.88;;;;;;;;;;5017896;28;20479;-61
2023/04/10 07:43:33;;;;;;;3.10;2.50;;;;;;;;;;5019409;28;20438;-60
2023/04/10 07:45:59;;;;;;;4.38;3.20;;;;;;;;;;5018919;28;20079;-60
2023/04/10 07:48:25;;;;;;;5.72;3.15;;;;;;;;;;5020545;28;20540;-60
2023/04/10 07:50:51;;;;;;;5.10;3.08;;;;;;;;;;5019819;28;20450;-60
2023/04/10 07:53:17;;;;;;;9.15;4.13;;;;;;;;;;5019011;28;20088;-60
2023/04/10 07:55:44;;;;;;;4.70;3.40;;;;;;;;;;5027142;28;20034;-61
2023/04/10 07:58:10;;;;;;;5.28;3.80;;;;;;;;;;5014368;28;20111;-61
2023/04/10 08:00:36;;;;;;;5.50;2.92;;;;;;;;;;5020021;28;20097;-61
2023/04/10 08:03:04;;;;;;;9.23;3.75;;;;;;;;;;5018543;28;20033;-61
2023/04/10 08:05:30;;;;;;;5.78;4.22;;;;;;;;;;5025990;28;20044;-61
2023/04/10 08:07:56;;;;;;;6.53;3.90;;;;;;;;;;5030890;28;20521;-62
2023/04/10 08:10:22;;;;;;;6.20;4.18;;;;;;;;;;5031197;28;20029;-62
2023/04/10 08:12:48;;;;;;;6.80;4.03;;;;;;;;;;5030511;28;20056;-62
2023/04/10 08:15:14;;;;;;;8.82;4.07;;;;;;;;;;5030649;28;20029;-61
2023/04/10 08:17:40;;;;;;;4.13;3.50;;;;;;;;;;5014306;28;20041;-61
2023/04/10 08:20:06;;;;;;;6.75;3.67;;;;;;;;;;5010961;28;20489;-63
2023/04/10 08:22:32;;;;;;;5.57;3.50;;;;;;;;;;5027610;28;20113;-61
2023/04/10 08:24:58;;;;;;;5.10;4.07;;;;;;;;;;5034692;28;20109;-61
2023/04/10 08:27:24;;;;;;;6.13;3.55;;;;;;;;;;5034437;28;20052;-61
2023/04/10 08:29:50;;;;;;;6.10;3.72;;;;;;;;;;5028068;28;20058;-61
2023/04/10 08:32:16;;;;;;;4.15;3.40;;;;;;;;;;5014131;28;20053;-61
2023/04/10 08:34:42;;;;;;;5.07;3.70;;;;;;;;;;5014093;28;20032;-61
2023/04/10 08:37:11;;;;;;;5.90;3.70;;;;;;;;;;5023916;28;20030;-61
2023/04/10 08:39:37;;;;;;;5.05;3.78;;;;;;;;;;5025102;28;20042;-61
2023/04/10 08:42:03;;;;;;;4.78;3.47;;;;;;;;;;5022361;28;20401;-61
2023/04/10 08:44:29;;;;;;;6.10;3.28;;;;;;;;;;5014442;28;20026;-61
2023/04/10 08:46:57;;;;;;;5.38;3.42;;;;;;;;;;5014522;28;20049;-61
2023/04/10 08:49:32;;;;;;;3.80;2.90;;;;;;;;;;5014801;28;20048;-61
2023/04/10 08:52:02;;;;;;;6.63;3.45;;;;;;;;;;5013527;28;20038;-61
2023/04/10 08:54:29;;;;;;;5.13;3.38;;;;;;;;;;5014127;28;20029;-62
2023/04/10 08:56:57;;;;;;;3.50;3.08;;;;;;;;;;5014449;28;20121;-62
2023/04/10 08:59:23;;;;;;;4.70;3.20;;;;;;;;;;5014225;28;20048;-62
2023/04/10 09:01:49;;;;;;;3.67;3.10;;;;;;;;;;5014730;28;20056;-61
2023/04/10 09:04:16;;;;;;;5.70;3.50;;;;;;;;;;5014382;28;20439;-61
2023/04/10 09:06:42;;;;;;;5.05;3.30;;;;;;;;;;5013355;28;20112;-61
2023/04/10 09:09:08;;;;;;;5.50;2.92;;;;;;;;;;5014218;28;20061;-61
2023/04/10 09:11:54;;;;;;;5.25;3.63;;;;;;;;;;5013970;28;20474;-61
2023/04/10 09:14:23;;;;;;;5.47;3.87;;;;;;;;;;5013929;28;20021;-61
2023/04/10 09:16:50;;;;;;;8.10;3.42;;;;;;;;;;5013682;28;20520;-61
2023/04/10 09:19:42;;;;;;;3.67;3.00;;;;;;;;;;5013873;28;20080;-61
2023/04/10 09:22:09;;;;;;;3.53;2.90;;;;;;;;;;5011074;28;20494;-61
2023/04/10 09:24:37;;;;;;;10.07;3.30;;;;;;;;;;5013627;28;20057;-61
2023/04/10 09:27:03;;;;;;;4.05;2.83;;;;;;;;;;5013928;28;20026;-61
2023/04/10 09:29:38;;;;;;;6.15;3.30;;;;;;;;;;5013656;28;20026;-61
2023/04/10 09:32:04;;;;;;;4.57;2.88;;;;;;;;;;5013627;28;20079;-61
2023/04/10 09:34:30;;;;;;;5.05;3.17;;;;;;;;;;5012843;28;20033;-61
2023/04/10 09:36:57;;;;;;;3.47;2.80;;;;;;;;;;5013701;28;20022;-61
2023/04/10 09:39:33;;;;;;;5.05;3.65;;;;;;;;;;5013762;28;20041;-61
2023/04/10 09:41:59;;;;;;;3.75;2.67;;;;;;;;;;5013571;28;20037;-61
2023/04/10 09:44:36;;;;;;;4.05;2.78;;;;;;;;;;5013431;28;20387;-61
2023/04/10 09:47:14;;;;;;;3.72;2.95;;;;;;;;;;5013396;28;20026;-61
2023/04/10 09:49:51;;;;;;;4.65;2.97;;;;;;;;;;5013431;28;20044;-61
2023/04/10 09:52:20;;;;;;;4.40;3.30;;;;;;;;;;5013328;28;20049;-61
2023/04/10 09:54:46;;;;;;;4.18;3.13;;;;;;;;;;5013267;28;20033;-61
2023/04/10 09:57:15;;;;;;;4.88;3.03;;;;;;;;;;5013387;28;20037;-61
2023/04/10 09:59:43;;;;;;;4.03;2.83;;;;;;;;;;5012708;28;20490;-61
2023/04/10 10:02:10;;;;;;;5.15;3.17;;;;;;;;;;5013424;28;20033;-62
2023/04/10 10:04:36;;;;;;;5.30;3.13;;;;;;;;;;5013112;28;20029;-61
2023/04/10 10:07:03;;;;;;;4.28;2.78;;;;;;;;;;5013330;28;20018;-61
2023/04/10 10:09:30;;;;;;;5.00;2.53;;;;;;;;;;5012872;28;20030;-61
2023/04/10 10:11:57;;;;;;;4.00;2.75;;;;;;;;;;5013028;28;20032;-61
2023/04/10 10:14:26;;;;;;;4.80;3.22;;;;;;;;;;5013112;28;20133;-61
2023/04/10 10:16:55;;;;;;;6.38;3.15;;;;;;;;;;5013105;28;20080;-61
2023/04/10 10:19:25;;;;;;;3.75;2.55;;;;;;;;;;5013175;28;20026;-61
2023/04/10 10:21:51;;;;;;;3.75;3.13;;;;;;;;;;5013190;28;20033;-61
2023/04/10 10:24:19;;;;;;;4.15;3.15;;;;;;;;;;5012854;28;20038;-61
2023/04/10 10:26:46;;;;;;;6.05;2.95;;;;;;;;;;5012481;28;20088;-61
2023/04/10 10:29:16;;;;;;;4.43;3.22;;;;;;;;;;5012724;28;20490;-61
2023/04/10 10:31:42;;;;;;;3.92;2.50;;;;;;;;;;5012565;28;20097;-61
2023/04/10 10:34:08;;;;;;;3.75;2.60;;;;;;;;;;5012736;28;20030;-61
2023/04/10 10:36:38;;;;;;;3.72;3.15;;;;;;;;;;5012405;28;20026;-61
2023/04/10 10:39:22;;;;;;;3.35;2.65;;;;;;;;;;5012441;28;20048;-61
2023/04/10 10:41:55;;;;;;;3.88;2.50;;;;;;;;;;5012256;28;20072;-61
2023/04/10 10:44:40;;;;;;;3.83;2.70;;;;;;;;;;5012254;28;20038;-61
2023/04/10 10:47:12;;;;;;;3.65;2.80;;;;;;;;;;5012453;28;20030;-61
2023/04/10 10:49:53;;;;;;;4.88;3.22;;;;;;;;;;5012251;28;20033;-61
2023/04/10 10:52:38;;;;;;;3.92;2.72;;;;;;;;;;5012582;28;20022;-61
2023/04/10 10:55:33;;;;;;;6.07;3.08;;;;;;;;;;5012327;28;20053;-61
2023/04/10 10:58:00;;;;;;;4.15;2.95;;;;;;;;;;5012246;28;20033;-61
2023/04/10 11:00:46;;;;;;;4.10;2.97;;;;;;;;;;5011824;28;20065;-61
2023/04/10 11:03:15;;;;;;;3.35;2.67;;;;;;;;;;4994594;28;20021;-62
2023/04/10 11:05:57;;;;;;;3.67;2.63;;;;;;;;;;5011804;28;20033;-61
2023/04/10 11:08:32;;;;;;;4.10;2.95;;;;;;;;;;5012416;28;20128;-61
2023/04/10 11:11:04;;;;;;;3.50;2.73;;;;;;;;;;5012208;28;20026;-61
2023/04/10 11:13:31;;;;;;;3.17;2.80;;;;;;;;;;5011700;28;20312;-61
2023/04/10 11:15:57;;;;;;;4.03;2.78;;;;;;;;;;5011967;28;20034;-61
2023/04/10 11:18:42;;;;;;;3.75;2.80;;;;;;;;;;5012104;28;20494;-61
2023/04/10 11:21:09;;;;;;;3.45;3.05;;;;;;;;;;5011789;28;20026;-62
2023/04/10 11:23:36;;;;;;;5.10;3.17;;;;;;;;;;5011365;28;20474;-61
2023/04/10 11:26:02;;;;;;;3.22;2.65;;;;;;;;;;5011649;28;20041;-61
2023/04/10 11:28:38;;;;;;;2.90;2.35;;;;;;;;;;5011523;28;20030;-61
2023/04/10 11:31:23;;;;;;;3.28;2.63;;;;;;;;;;5011606;28;20056;-61
2023/04/10 11:33:52;;;;;;;4.28;2.83;;;;;;;;;;5011331;28;20558;-61
2023/04/10 11:36:18;;;;;;;3.88;2.75;;;;;;;;;;4994781;28;20021;-61
2023/04/10 11:38:55;;;;;;;3.08;2.70;;;;;;;;;;5011352;28;20620;-61
2023/04/10 11:41:21;;;;;;;3.17;2.60;;;;;;;;;;5011735;28;20037;-61
2023/04/10 11:43:50;;;;;;;2.95;2.25;;;;;;;;;;5011280;28;20065;-61
2023/04/10 11:46:17;;;;;;;2.85;2.25;;;;;;;;;;5011492;28;20375;-61
2023/04/10 11:48:43;;;;;;;2.50;2.20;;;;;;;;;;5011292;28;20026;-61
2023/04/10 11:51:10;;;;;;;4.32;2.38;;;;;;;;;;5011515;28;20052;-61
2023/04/10 11:53:37;;;;;;;3.05;2.28;;;;;;;;;;5011241;28;20032;-61
2023/04/10 11:56:03;;;;;;;2.95;2.30;;;;;;;;;;5010784;28;20033;-61
2023/04/10 11:58:31;;;;;;;3.13;2.22;;;;;;;;;;5011115;28;20041;-60
2023/04/10 12:01:01;;;;;;;3.10;2.40;;;;;;;;;;5011537;28;20201;-61
2023/04/10 12:03:45;;;;;;;4.00;2.50;;;;;;;;;;5011196;28;20382;-61
2023/04/10 12:06:12;;;;;;;3.10;2.72;;;;;;;;;;5011363;28;20022;-61
2023/04/10 12:08:40;;;;;;;2.85;2.05;;;;;;;;;;5011050;28;20033;-61
2023/04/10 12:11:06;;;;;;;2.92;2.15;;;;;;;;;;5011232;28;20033;-61
2023/04/10 12:13:32;;;;;;;2.70;2.20;;;;;;;;;;4993744;28;20087;-61
2023/04/10 12:16:03;;;;;;;3.92;2.53;;;;;;;;;;5011302;28;20026;-61
2023/04/10 12:18:29;;;;;;;3.40;2.53;;;;;;;;;;5010927;28;20040;-61
2023/04/10 12:20:56;;;;;;;2.83;2.35;;;;;;;;;;5011148;28;20049;-61
2023/04/10 12:23:23;;;;;;;4.28;2.35;;;;;;;;;;5011458;28;20105;-61
2023/04/10 12:25:50;;;;;;;3.28;2.45;;;;;;;;;;5011359;28;20088;-61
2023/04/10 12:28:20;;;;;;;3.80;2.70;;;;;;;;;;5010994;28;20026;-62
2023/04/10 12:30:47;;;;;;;4.10;2.20;;;;;;;;;;5010848;28;20457;-61
2023/04/10 12:33:13;;;;;;;4.00;2.42;;;;;;;;;;5011040;28;20030;-61
2023/04/10 12:35:39;;;;;;;2.78;2.13;;;;;;;;;;5010853;28;20034;-61
2023/04/10 12:38:05;;;;;;;3.65;2.50;;;;;;;;;;5010931;28;20026;-61
2023/04/10 12:40:31;;;;;;;2.88;2.13;;;;;;;;;;5010726;28;20038;-60
2023/04/10 12:42:57;;;;;;;3.00;2.40;;;;;;;;;;5010917;28;20080;-61
2023/04/10 12:45:41;;;;;;;4.03;2.47;;;;;;;;;;5011371;28;20105;-61
2023/04/10 12:48:07;;;;;;;3.03;2.20;;;;;;;;;;5011067;28;20379;-61
2023/04/10 12:50:33;;;;;;;2.45;1.90;;;;;;;;;;5010630;28;20048;-61
2023/04/10 12:53:06;;;;;;;2.95;2.20;;;;;;;;;;5010757;28;20478;-61
2023/04/10 12:55:32;;;;;;;3.38;2.33;;;;;;;;;;5010538;28;20490;-61
2023/04/10 12:57:58;;;;;;;2.80;2.10;;;;;;;;;;4993242;28;20026;-61
2023/04/10 13:00:25;;;;;;;3.22;2.28;;;;;;;;;;5010607;28;20084;-61
2023/04/10 13:02:51;;;;;;;3.10;2.15;;;;;;;;;;5010990;28;20030;-61
2023/04/10 13:05:17;;;;;;;2.75;2.20;;;;;;;;;;5010771;28;20551;-61
2023/04/10 13:07:43;;;;;;;3.78;2.20;;;;;;;;;;5011928;28;20034;-61
2023/04/10 13:10:09;;;;;;;3.05;2.10;;;;;;;;;;5014238;28;20029;-61
2023/04/10 13:12:36;;;;;;;2.58;1.98;;;;;;;;;;5013792;28;20055;-62
2023/04/10 13:15:02;;;;;;;3.03;1.90;;;;;;;;;;5014146;28;20175;-61
2023/04/10 13:17:29;;;;;;;3.40;2.00;;;;;;;;;;5013860;28;20026;-62
2023/04/10 13:19:55;;;;;;;3.13;2.22;;;;;;;;;;5013631;28;20041;-61
2023/04/10 13:22:21;;;;;;;3.17;2.30;;;;;;;;;;5014296;28;20026;-61
2023/04/10 13:24:47;;;;;;;2.47;1.80;;;;;;;;;;5013692;28;20478;-61
2023/04/10 13:27:13;;;;;;;3.25;1.83;;;;;;;;;;5014017;28;20105;-61
2023/04/10 13:29:39;;;;;;;3.45;2.30;;;;;;;;;;5013722;28;20030;-61
2023/04/10 13:32:05;;;;;;;2.72;1.85;;;;;;;;;;5013700;28;20429;-61
2023/04/10 13:34:32;;;;;;;2.47;2.13;;;;;;;;;;5013303;28;20033;-61
2023/04/10 13:36:58;;;;;;;2.20;1.88;;;;;;;;;;5013691;28;20046;-61
2023/04/10 13:39:25;;;;;;;2.50;1.90;;;;;;;;;;5013525;28;20076;-61
2023/04/10 13:41:51;;;;;;;2.65;1.95;;;;;;;;;;5013928;28;20110;-61
2023/04/10 13:44:17;;;;;;;3.42;2.30;;;;;;;;;;5013636;28;20464;-62
2023/04/10 13:46:43;;;;;;;3.20;2.22;;;;;;;;;;5013359;28;20033;-61
2023/04/10 13:49:09;;;;;;;2.30;1.83;;;;;;;;;;5013524;28;20053;-61
2023/04/10 13:51:35;;;;;;;3.58;2.35;;;;;;;;;;5013206;28;20466;-61
2023/04/10 13:54:03;;;;;;;4.28;2.70;;;;;;;;;;5013473;28;20026;-61
2023/04/10 13:56:29;;;;;;;3.30;2.35;;;;;;;;;;5013281;28;20037;-61
2023/04/10 13:58:55;;;;;;;2.83;2.45;;;;;;;;;;5013290;28;20034;-61
2023/04/10 14:01:21;;;;;;;3.38;2.40;;;;;;;;;;4995735;28;20116;-61
2023/04/10 14:03:47;;;;;;;2.63;2.22;;;;;;;;;;5013099;28;20054;-61
2023/04/10 14:06:13;;;;;;;3.30;2.20;;;;;;;;;;4995782;28;20500;-60
2023/04/10 14:08:39;;;;;;;2.47;2.22;;;;;;;;;;5012676;28;20510;-60
2023/04/10 14:11:05;;;;;;;2.63;1.80;;;;;;;;;;5012980;28;20501;-61
2023/04/10 14:13:31;;;;;;;3.38;2.25;;;;;;;;;;5012683;28;20026;-61
2023/04/10 14:15:58;;;;;;;2.65;2.28;;;;;;;;;;4995340;28;20022;-61
2023/04/10 14:18:24;;;;;;;3.53;2.25;;;;;;;;;;5012715;28;20026;-61
2023/04/10 14:20:50;;;;;;;3.00;2.17;;;;;;;;;;5012785;28;20037;-61
2023/04/10 14:23:16;;;;;;;3.63;2.17;;;;;;;;;;5013095;28;20030;-61
2023/04/10 14:25:43;;;;;;;3.78;2.10;;;;;;;;;;5012432;28;20494;-60
2023/04/10 14:28:16;;;;;;;3.45;2.30;;;;;;;;;;5012872;28;20022;-61
2023/04/10 14:30:42;;;;;;;2.45;1.95;;;;;;;;;;5012434;28;20046;-61
2023/04/10 14:33:08;;;;;;;2.40;2.05;;;;;;;;;;5012679;28;20018;-60
2023/04/10 14:35:34;;;;;;;2.45;1.95;;;;;;;;;;5012455;28;20425;-60
2023/04/10 14:38:01;;;;;;;3.38;2.22;;;;;;;;;;5012496;28;20026;-61
2023/04/10 14:40:27;;;;;;;2.92;2.25;;;;;;;;;;5012159;28;20032;-61
2023/04/10 14:42:53;;;;;;;2.88;2.20;;;;;;;;;;5012807;28;20057;-61
2023/04/10 14:45:19;;;;;;;5.47;2.40;;;;;;;;;;5012396;28;20054;-62
2023/04/10 14:47:46;;;;;;;3.40;2.28;;;;;;;;;;5012275;28;20065;-61